Time;durP1;ratioP1;P1;durP2;ratioP2;P2;SDS_P1;SDS_P2;PMS_P1;PMS_P2;Temp;Humidity;BMP_temperature;BMP_pressure;BME280_temperature;BME280_humidity;BME280_pressure;Samples;Min_cycle;Max_cycle;Signal;HPM_P1;HPM_P2
2021/10/16 00:01:05;;;;;;;10.30;8.00;;;6.00;99.90;;;;;;5095386;28;20227;-63
2021/10/16 00:03:33;;;;;;;11.63;7.90;;;6.00;99.90;;;;;;5095020;28;20711;-64
2021/10/16 00:06:02;;;;;;;8.30;7.13;;;6.00;99.90;;;;;;5095163;28;20297;-63
2021/10/16 00:08:30;;;;;;;11.23;6.77;;;6.10;99.90;;;;;;5094684;28;20298;-63
2021/10/16 00:10:58;;;;;;;9.97;7.03;;;6.00;99.90;;;;;;5094710;28;20309;-63
2021/10/16 00:13:26;;;;;;;10.40;6.60;;;6.00;99.90;;;;;;5095176;28;20291;-64
2021/10/16 00:15:54;;;;;;;8.00;6.57;;;5.90;99.90;;;;;;5094952;28;20313;-64
2021/10/16 00:18:22;;;;;;;8.77;6.60;;;6.00;99.90;;;;;;5094872;28;20196;-63
2021/10/16 00:20:50;;;;;;;8.77;6.90;;;5.90;99.90;;;;;;5094589;28;20302;-64
2021/10/16 00:23:19;;;;;;;10.77;7.90;;;6.00;99.90;;;;;;5094529;28;20680;-63
2021/10/16 00:25:47;;;;;;;8.77;7.20;;;6.00;99.90;;;;;;5094728;28;20202;-64
2021/10/16 00:28:15;;;;;;;8.67;7.07;;;6.00;99.90;;;;;;5094812;28;20238;-63
2021/10/16 00:30:43;;;;;;;10.63;7.60;;;5.90;99.90;;;;;;5094837;28;20295;-63
2021/10/16 00:33:11;;;;;;;9.63;7.13;;;5.90;99.90;;;;;;5094617;28;20203;-62
2021/10/16 00:35:39;;;;;;;11.13;8.27;;;5.80;99.90;;;;;;5094581;28;20230;-63
2021/10/16 00:38:07;;;;;;;12.67;8.67;;;5.90;99.90;;;;;;5094517;28;20203;-63
2021/10/16 00:40:36;;;;;;;14.27;9.73;;;5.90;99.90;;;;;;5094342;28;20200;-63
2021/10/16 00:43:04;;;;;;;11.60;9.00;;;5.90;99.90;;;;;;5094550;28;20196;-64
2021/10/16 00:45:32;;;;;;;13.30;9.73;;;5.90;99.90;;;;;;5094425;28;20282;-63
2021/10/16 00:48:00;;;;;;;14.10;9.97;;;5.90;99.90;;;;;;5094440;28;20204;-63
2021/10/16 00:50:28;;;;;;;12.90;9.63;;;5.80;99.90;;;;;;5094018;28;20246;-63
2021/10/16 00:52:56;;;;;;;16.93;11.97;;;5.80;99.90;;;;;;5093887;28;20290;-63
2021/10/16 00:55:24;;;;;;;11.93;10.27;;;5.80;99.90;;;;;;5093549;28;20742;-63
2021/10/16 00:57:55;;;;;;;11.23;9.70;;;5.80;99.90;;;;;;5093770;28;20200;-63
2021/10/16 01:00:22;;;;;;;11.70;10.00;;;5.80;99.90;;;;;;5094327;28;20206;-63
2021/10/16 01:02:50;;;;;;;16.07;10.37;;;5.70;99.90;;;;;;5093097;28;20213;-62
2021/10/16 01:05:18;;;;;;;11.30;9.33;;;5.70;99.90;;;;;;5093990;28;20257;-63
2021/10/16 01:07:46;;;;;;;12.00;9.40;;;5.50;99.90;;;;;;5093625;28;20297;-63
2021/10/16 01:10:15;;;;;;;15.50;8.87;;;5.70;99.90;;;;;;5093273;28;20615;-63
2021/10/16 01:12:44;;;;;;;11.20;8.53;;;5.70;99.90;;;;;;5093596;28;20301;-63
2021/10/16 01:15:16;;;;;;;9.50;7.63;;;5.70;99.90;;;;;;5094209;28;20767;-64
2021/10/16 01:17:46;;;;;;;13.07;7.43;;;5.60;99.90;;;;;;5093807;28;20241;-63
2021/10/16 01:20:16;;;;;;;9.80;7.43;;;5.60;99.90;;;;;;5093882;28;20194;-63
2021/10/16 01:22:48;;;;;;;11.83;8.43;;;5.60;99.90;;;;;;5093360;28;20188;-63
2021/10/16 01:25:18;;;;;;;13.27;8.63;;;5.60;99.90;;;;;;5093373;28;20227;-62
2021/10/16 01:27:47;;;;;;;12.03;7.93;;;5.60;99.90;;;;;;5093652;28;20205;-63
2021/10/16 01:30:17;;;;;;;12.10;9.30;;;5.60;99.90;;;;;;5093307;28;20660;-62
2021/10/16 01:32:45;;;;;;;11.13;9.40;;;5.60;99.90;;;;;;5093339;28;20283;-63
2021/10/16 01:35:14;;;;;;;12.40;8.93;;;5.60;99.90;;;;;;5093543;28;20205;-63
2021/10/16 01:37:44;;;;;;;11.20;8.20;;;5.60;99.90;;;;;;5093408;28;20223;-66
2021/10/16 01:40:14;;;;;;;9.87;8.00;;;5.60;99.90;;;;;;5093352;28;20218;-65
2021/10/16 01:42:43;;;;;;;13.13;8.00;;;5.60;99.90;;;;;;5093203;28;20288;-66
2021/10/16 01:45:12;;;;;;;10.47;7.67;;;5.50;99.90;;;;;;5093421;28;20232;-65
2021/10/16 01:47:50;;;;;;;10.47;7.87;;;5.50;99.90;;;;;;5093273;28;20285;-66
2021/10/16 01:50:19;;;;;;;9.93;7.50;;;5.50;99.90;;;;;;5093423;28;20219;-64
2021/10/16 01:52:47;;;;;;;12.43;7.77;;;5.50;99.90;;;;;;5093145;28;20207;-66
2021/10/16 01:55:16;;;;;;;10.27;7.60;;;5.50;99.90;;;;;;5093100;28;20295;-65
2021/10/16 01:57:45;;;;;;;11.40;8.40;;;5.50;99.90;;;;;;5093003;28;20319;-65
2021/10/16 02:00:14;;;;;;;10.73;7.80;;;5.60;99.90;;;;;;5093013;28;20199;-65
2021/10/16 02:02:41;;;;;;;11.87;8.40;;;5.50;99.90;;;;;;5093037;28;20203;-65
2021/10/16 02:05:10;;;;;;;11.00;8.07;;;5.50;99.90;;;;;;5092893;28;20261;-65
2021/10/16 02:07:38;;;;;;;11.27;9.40;;;5.50;99.90;;;;;;5092982;28;20227;-65
2021/10/16 02:10:06;;;;;;;11.10;8.53;;;5.50;99.90;;;;;;5092495;28;20255;-66
2021/10/16 02:12:36;;;;;;;12.90;9.03;;;5.50;99.90;;;;;;5092999;28;20294;-66
2021/10/16 02:15:04;;;;;;;12.90;9.67;;;5.50;99.90;;;;;;5092536;28;20302;-66
2021/10/16 02:17:31;;;;;;;12.93;9.80;;;5.50;99.90;;;;;;5092869;28;20222;-65
2021/10/16 02:19:59;;;;;;;12.07;9.90;;;5.40;99.90;;;;;;5092698;28;20670;-66
2021/10/16 02:22:27;;;;;;;15.63;10.90;;;5.40;99.90;;;;;;5092663;28;20203;-66
2021/10/16 02:24:55;;;;;;;15.37;11.70;;;5.40;99.90;;;;;;5092572;28;20230;-64
2021/10/16 02:27:23;;;;;;;15.20;13.03;;;5.40;99.90;;;;;;5092862;28;20302;-67
2021/10/16 02:29:53;;;;;;;17.07;13.83;;;5.40;99.90;;;;;;5092773;28;20623;-66
2021/10/16 02:32:20;;;;;;;19.07;15.40;;;5.40;99.90;;;;;;5092571;28;20219;-65
2021/10/16 02:34:48;;;;;;;22.97;14.77;;;5.40;99.90;;;;;;5092473;28;20207;-65
2021/10/16 02:37:16;;;;;;;15.47;13.03;;;5.40;99.90;;;;;;5092345;28;20228;-65
2021/10/16 02:39:44;;;;;;;19.37;13.30;;;5.40;99.90;;;;;;5092326;28;20298;-65
2021/10/16 02:42:12;;;;;;;16.07;13.03;;;5.40;99.90;;;;;;5092618;28;20208;-66
2021/10/16 02:44:40;;;;;;;16.27;12.83;;;5.40;99.90;;;;;;5092623;28;20316;-66
2021/10/16 02:47:09;;;;;;;15.57;11.67;;;5.40;99.90;;;;;;5092699;28;20212;-66
2021/10/16 02:49:37;;;;;;;13.57;10.57;;;5.40;99.90;;;;;;5092578;28;20206;-66
2021/10/16 02:52:05;;;;;;;14.67;10.67;;;5.30;99.90;;;;;;5092281;28;20204;-65
2021/10/16 02:54:33;;;;;;;14.63;9.83;;;5.30;99.90;;;;;;5091978;28;20662;-65
2021/10/16 02:57:01;;;;;;;12.43;9.40;;;5.30;99.90;;;;;;5092156;28;20238;-66
2021/10/16 02:59:29;;;;;;;11.43;9.10;;;5.30;99.90;;;;;;5092261;28;20294;-66
2021/10/16 03:01:57;;;;;;;13.60;9.77;;;5.30;99.90;;;;;;5092026;28;20293;-66
2021/10/16 03:04:26;;;;;;;11.00;9.10;;;5.40;99.90;;;;;;5092409;28;20207;-66
2021/10/16 03:06:54;;;;;;;10.10;8.20;;;5.40;99.90;;;;;;5092289;28;20206;-66
2021/10/16 03:09:22;;;;;;;12.40;8.13;;;5.40;99.90;;;;;;5091960;28;20207;-65
2021/10/16 03:11:50;;;;;;;11.33;8.63;;;5.40;99.90;;;;;;5091890;28;20322;-66
2021/10/16 03:14:18;;;;;;;12.23;8.70;;;5.30;99.90;;;;;;5092330;28;20250;-65
2021/10/16 03:16:46;;;;;;;14.53;8.93;;;5.30;99.90;;;;;;5091953;28;20219;-66
2021/10/16 03:19:13;;;;;;;11.37;8.50;;;5.30;99.90;;;;;;5092061;28;20725;-65
2021/10/16 03:21:42;;;;;;;12.70;8.40;;;5.20;99.90;;;;;;5091909;28;20617;-66
2021/10/16 03:24:10;;;;;;;12.77;8.33;;;5.20;99.90;;;;;;5091985;28;20202;-66
2021/10/16 03:26:38;;;;;;;12.57;8.17;;;5.20;99.90;;;;;;5094424;28;20201;-65
2021/10/16 03:29:06;;;;;;;12.33;8.40;;;5.20;99.90;;;;;;5095979;28;20598;-66
2021/10/16 03:31:34;;;;;;;13.60;8.73;;;5.20;99.90;;;;;;5095910;28;20209;-66
2021/10/16 03:34:02;;;;;;;12.77;8.57;;;5.20;99.90;;;;;;5095617;28;20672;-64
2021/10/16 03:36:30;;;;;;;10.97;9.13;;;5.20;99.90;;;;;;5095800;28;20230;-66
2021/10/16 03:38:59;;;;;;;15.17;9.20;;;5.10;99.90;;;;;;5095430;28;20226;-66
2021/10/16 03:41:27;;;;;;;14.50;8.70;;;5.20;99.90;;;;;;5095487;28;20299;-65
2021/10/16 03:43:55;;;;;;;14.90;8.57;;;5.20;99.90;;;;;;5095655;28;20271;-67
2021/10/16 03:46:23;;;;;;;12.90;9.30;;;5.20;99.90;;;;;;5095535;28;20303;-66
2021/10/16 03:48:50;;;;;;;12.40;9.10;;;5.20;99.90;;;;;;5095151;28;20237;-67
2021/10/16 03:51:18;;;;;;;12.33;8.80;;;5.20;99.90;;;;;;5095473;28;20288;-65
2021/10/16 03:53:46;;;;;;;16.27;9.53;;;5.20;99.90;;;;;;5095136;28;20545;-66
2021/10/16 03:56:15;;;;;;;13.97;10.00;;;5.10;99.90;;;;;;5095263;28;20200;-66
2021/10/16 03:58:43;;;;;;;13.93;9.93;;;5.20;99.90;;;;;;5094922;28;20221;-66
2021/10/16 04:01:11;;;;;;;13.97;9.97;;;5.10;99.90;;;;;;5095350;28;20298;-66
2021/10/16 04:03:39;;;;;;;15.37;11.67;;;5.10;99.90;;;;;;5095276;28;20198;-66
2021/10/16 04:06:07;;;;;;;13.70;10.80;;;5.10;99.90;;;;;;5094961;28;20730;-65
2021/10/16 04:08:34;;;;;;;13.40;10.33;;;5.10;99.90;;;;;;5094744;28;20213;-65
2021/10/16 04:11:02;;;;;;;13.70;9.73;;;5.10;99.90;;;;;;5094674;28;20319;-65
2021/10/16 04:13:31;;;;;;;12.07;9.67;;;5.10;99.90;;;;;;5094827;28;20205;-65
2021/10/16 04:15:59;;;;;;;12.97;10.53;;;5.10;99.90;;;;;;5094659;28;20671;-65
2021/10/16 04:18:27;;;;;;;14.43;9.60;;;5.10;99.90;;;;;;5095052;28;20258;-67
2021/10/16 04:20:55;;;;;;;12.57;9.77;;;5.10;99.90;;;;;;5094899;28;20202;-65
2021/10/16 04:23:23;;;;;;;12.63;9.57;;;5.10;99.90;;;;;;5094653;28;20202;-65
2021/10/16 04:25:51;;;;;;;16.23;10.03;;;5.10;99.90;;;;;;5094737;28;20287;-65
2021/10/16 04:28:18;;;;;;;14.40;10.33;;;5.10;99.90;;;;;;5094815;28;20290;-66
2021/10/16 04:30:48;;;;;;;16.43;10.57;;;5.10;99.90;;;;;;5094365;28;20666;-64
2021/10/16 04:33:16;;;;;;;15.43;10.00;;;5.20;99.90;;;;;;5094398;28;20683;-66
2021/10/16 04:35:44;;;;;;;16.20;10.40;;;5.20;99.90;;;;;;5094281;28;20208;-65
2021/10/16 04:38:12;;;;;;;12.80;9.60;;;5.20;99.90;;;;;;5093789;28;20774;-66
2021/10/16 04:40:40;;;;;;;16.37;10.47;;;5.20;99.90;;;;;;5094359;28;20314;-66
2021/10/16 04:43:10;;;;;;;16.03;11.07;;;5.20;99.90;;;;;;5094221;28;20245;-66
2021/10/16 04:45:38;;;;;;;14.23;11.10;;;5.20;99.90;;;;;;5094622;28;20703;-65
2021/10/16 04:48:08;;;;;;;20.23;11.87;;;5.20;99.90;;;;;;5094354;28;20206;-66
2021/10/16 04:50:36;;;;;;;15.70;11.30;;;5.20;99.90;;;;;;5094285;28;20294;-65
2021/10/16 04:53:04;;;;;;;14.90;11.17;;;5.20;99.90;;;;;;5093840;28;20248;-67
2021/10/16 04:55:32;;;;;;;16.53;11.00;;;5.30;99.90;;;;;;5094072;28;20214;-65
2021/10/16 04:58:00;;;;;;;15.83;10.60;;;5.30;99.90;;;;;;5093727;28;20219;-65
2021/10/16 05:00:28;;;;;;;14.10;10.27;;;5.20;99.90;;;;;;5094220;28;20203;-65
2021/10/16 05:02:56;;;;;;;15.27;10.97;;;5.20;99.90;;;;;;5094029;28;20206;-65
2021/10/16 05:05:26;;;;;;;16.27;12.27;;;5.20;99.90;;;;;;5094104;28;20253;-66
2021/10/16 05:07:54;;;;;;;17.70;12.00;;;5.20;99.90;;;;;;5094107;28;20192;-66
2021/10/16 05:10:22;;;;;;;14.53;11.90;;;5.20;99.90;;;;;;5093496;28;20318;-65
2021/10/16 05:12:50;;;;;;;15.07;11.63;;;5.30;99.90;;;;;;5094270;28;20272;-66
2021/10/16 05:15:18;;;;;;;14.90;11.03;;;5.40;99.90;;;;;;5093494;28;20298;-66
2021/10/16 05:17:45;;;;;;;14.20;10.53;;;5.40;99.90;;;;;;5093778;28;20204;-66
2021/10/16 05:20:13;;;;;;;13.57;11.17;;;5.50;99.90;;;;;;5093783;28;20206;-66
2021/10/16 05:22:42;;;;;;;16.37;10.00;;;5.50;99.90;;;;;;5093844;28;20199;-66
2021/10/16 05:25:11;;;;;;;12.43;9.13;;;5.50;99.90;;;;;;5093442;28;20261;-66
2021/10/16 05:27:39;;;;;;;14.17;9.80;;;5.60;99.90;;;;;;5093645;28;20200;-65
2021/10/16 05:30:08;;;;;;;16.03;9.40;;;5.60;99.90;;;;;;5093624;28;20203;-62
2021/10/16 05:32:36;;;;;;;15.87;10.33;;;5.60;99.90;;;;;;5093623;28;20204;-63
2021/10/16 05:35:05;;;;;;;11.97;9.10;;;5.60;99.90;;;;;;5093497;28;20206;-63
2021/10/16 05:37:33;;;;;;;12.13;9.77;;;5.60;99.90;;;;;;5093140;28;20571;-64
2021/10/16 05:40:02;;;;;;;15.93;9.80;;;5.70;99.90;;;;;;5092985;28;20234;-63
2021/10/16 05:42:30;;;;;;;14.47;10.93;;;5.70;99.90;;;;;;5093353;28;20292;-62
2021/10/16 05:45:01;;;;;;;14.23;9.97;;;5.70;99.90;;;;;;5092808;28;20768;-63
2021/10/16 05:47:29;;;;;;;13.73;10.73;;;5.70;99.90;;;;;;5093087;28;20197;-62
2021/10/16 05:49:57;;;;;;;14.90;10.93;;;5.70;99.90;;;;;;5092684;28;20229;-64
2021/10/16 05:52:25;;;;;;;16.63;10.63;;;5.70;99.90;;;;;;5092857;28;20253;-63
2021/10/16 05:54:53;;;;;;;13.70;10.70;;;5.70;99.90;;;;;;5092429;28;20627;-63
2021/10/16 05:57:22;;;;;;;15.43;10.90;;;5.70;99.90;;;;;;5093094;28;20225;-63
2021/10/16 05:59:50;;;;;;;14.67;11.20;;;5.80;99.90;;;;;;5093120;28;20648;-64
2021/10/16 06:02:18;;;;;;;14.23;10.97;;;5.80;99.90;;;;;;5093292;28;20298;-64
2021/10/16 06:04:46;;;;;;;13.90;12.10;;;5.90;99.90;;;;;;5092940;28;20206;-64
2021/10/16 06:07:14;;;;;;;18.40;13.10;;;5.90;99.90;;;;;;5092994;28;20231;-63
2021/10/16 06:09:41;;;;;;;14.90;10.77;;;5.80;99.90;;;;;;5092470;28;20199;-63
2021/10/16 06:12:09;;;;;;;15.73;12.30;;;5.90;99.90;;;;;;5093008;28;20599;-62
2021/10/16 06:14:39;;;;;;;15.20;12.00;;;6.00;99.90;;;;;;5092438;28;20609;-62
2021/10/16 06:17:06;;;;;;;13.87;11.23;;;6.10;99.90;;;;;;5092864;28;20196;-64
2021/10/16 06:19:34;;;;;;;14.33;10.77;;;6.10;99.90;;;;;;5092561;28;20230;-63
2021/10/16 06:22:03;;;;;;;13.30;11.07;;;6.10;99.90;;;;;;5092485;28;20647;-63
2021/10/16 06:24:31;;;;;;;15.00;10.17;;;6.20;99.90;;;;;;5092393;28;20202;-63
2021/10/16 06:26:58;;;;;;;14.63;10.67;;;6.20;99.90;;;;;;5092634;28;20196;-63
2021/10/16 06:29:26;;;;;;;13.90;10.53;;;6.20;99.90;;;;;;5092610;28;20210;-63
2021/10/16 06:31:55;;;;;;;13.70;10.40;;;6.30;99.90;;;;;;5092770;28;20604;-64
2021/10/16 06:34:23;;;;;;;15.00;10.10;;;6.30;99.90;;;;;;5092566;28;20197;-63
2021/10/16 06:36:51;;;;;;;14.67;11.27;;;6.30;99.90;;;;;;5092523;28;20206;-63
2021/10/16 06:39:19;;;;;;;17.20;10.93;;;6.40;99.90;;;;;;5092339;28;20307;-64
2021/10/16 06:41:47;;;;;;;13.13;8.90;;;6.50;99.90;;;;;;5092542;28;20222;-63
2021/10/16 06:44:15;;;;;;;14.03;8.63;;;6.50;99.90;;;;;;5092627;28;20257;-63
2021/10/16 06:46:42;;;;;;;12.77;9.07;;;6.60;99.90;;;;;;5092476;28;20228;-63
2021/10/16 06:49:12;;;;;;;14.87;10.37;;;6.70;99.90;;;;;;5092442;28;20225;-64
2021/10/16 06:51:40;;;;;;;13.37;9.90;;;6.80;99.90;;;;;;5092452;28;20222;-64
2021/10/16 06:54:09;;;;;;;14.47;10.27;;;6.80;99.90;;;;;;5091884;28;20543;-63
2021/10/16 06:56:37;;;;;;;13.50;9.43;;;6.90;99.90;;;;;;5092433;28;20211;-64
2021/10/16 06:59:06;;;;;;;12.40;8.70;;;7.10;99.90;;;;;;5092337;28;20216;-63
2021/10/16 07:01:33;;;;;;;12.17;9.47;;;7.10;99.90;;;;;;5094553;28;20729;-62
2021/10/16 07:04:01;;;;;;;14.47;9.67;;;7.20;99.90;;;;;;5096274;28;20257;-62
2021/10/16 07:06:31;;;;;;;13.13;10.33;;;7.30;99.90;;;;;;5096355;28;20227;-63
2021/10/16 07:08:58;;;;;;;12.67;9.93;;;7.30;99.90;;;;;;5095852;28;20207;-63
2021/10/16 07:11:26;;;;;;;12.37;9.33;;;7.30;99.90;;;;;;5095512;28;20223;-63
2021/10/16 07:13:54;;;;;;;13.40;9.63;;;7.50;99.90;;;;;;5095970;28;20299;-63
2021/10/16 07:16:22;;;;;;;14.23;10.13;;;7.50;99.90;;;;;;5095819;28;20651;-63
2021/10/16 07:18:50;;;;;;;9.93;8.50;;;7.50;99.90;;;;;;5095531;28;20239;-63
2021/10/16 07:21:17;;;;;;;12.10;8.23;;;7.60;99.90;;;;;;5095707;28;20204;-63
2021/10/16 07:24:01;;;;;;;10.67;7.70;;;7.70;99.90;;;;;;5095735;28;20561;-63
2021/10/16 07:26:29;;;;;;;14.97;9.13;;;7.80;99.90;;;;;;5095728;28;20303;-63
2021/10/16 07:28:57;;;;;;;12.43;8.17;;;7.80;99.90;;;;;;5095320;28;20671;-64
2021/10/16 07:31:28;;;;;;;9.63;7.80;;;7.90;99.90;;;;;;5095636;28;20211;-65
2021/10/16 07:33:56;;;;;;;10.47;7.57;;;8.00;99.90;;;;;;5095712;28;20180;-63
2021/10/16 07:36:24;;;;;;;11.90;7.03;;;8.10;99.90;;;;;;5095568;28;20257;-63
2021/10/16 07:38:52;;;;;;;10.80;7.07;;;8.30;99.90;;;;;;5094945;28;20755;-64
2021/10/16 07:41:21;;;;;;;9.03;6.57;;;8.40;99.90;;;;;;5095314;28;20199;-63
2021/10/16 07:43:49;;;;;;;8.67;7.03;;;8.40;99.90;;;;;;5095308;28;20287;-63
2021/10/16 07:46:17;;;;;;;14.63;7.70;;;8.50;99.90;;;;;;5095215;28;20711;-63
2021/10/16 07:48:44;;;;;;;11.33;8.90;;;8.60;99.90;;;;;;5095076;28;20300;-63
2021/10/16 07:51:12;;;;;;;11.60;9.37;;;8.70;99.90;;;;;;5095256;28;20571;-63
2021/10/16 07:53:40;;;;;;;11.57;7.53;;;8.70;99.90;;;;;;5094937;28;20303;-64
2021/10/16 07:56:08;;;;;;;11.40;7.10;;;8.70;99.90;;;;;;5094871;28;20299;-64
2021/10/16 07:58:39;;;;;;;11.47;8.03;;;8.70;99.90;;;;;;5094870;28;20682;-63
2021/10/16 08:01:07;;;;;;;9.67;7.63;;;8.90;99.90;;;;;;5095066;28;20295;-63
2021/10/16 08:03:36;;;;;;;10.23;7.40;;;8.90;99.90;;;;;;5094791;28;20204;-63
2021/10/16 08:06:05;;;;;;;12.80;8.00;;;9.00;99.90;;;;;;5094534;28;20663;-63
2021/10/16 08:08:33;;;;;;;10.27;7.00;;;9.00;99.90;;;;;;5094415;28;20196;-63
2021/10/16 08:11:01;;;;;;;12.13;7.50;;;8.80;99.90;;;;;;5093833;28;20228;-63
2021/10/16 08:13:30;;;;;;;11.17;7.30;;;8.80;99.90;;;;;;5094751;28;20207;-63
2021/10/16 08:15:59;;;;;;;11.23;7.50;;;8.80;99.90;;;;;;5094846;28;20206;-63
2021/10/16 08:18:27;;;;;;;13.40;8.53;;;8.90;99.90;;;;;;5094744;28;20561;-63
2021/10/16 08:20:55;;;;;;;13.13;6.77;;;8.90;99.90;;;;;;5094254;28;20631;-63
2021/10/16 08:23:23;;;;;;;12.40;7.33;;;9.00;99.90;;;;;;5094359;28;20243;-63
2021/10/16 08:25:51;;;;;;;12.77;7.03;;;9.10;99.90;;;;;;5094299;28;20727;-63
2021/10/16 08:28:20;;;;;;;10.57;6.90;;;9.20;99.90;;;;;;5094374;28;20204;-64
2021/10/16 08:30:51;;;;;;;11.67;6.43;;;9.20;99.90;;;;;;5094357;28;20548;-63
2021/10/16 08:33:22;;;;;;;10.43;5.80;;;9.20;99.90;;;;;;5094478;28;20643;-63
2021/10/16 08:35:50;;;;;;;10.93;6.10;;;9.20;99.90;;;;;;5094481;28;20199;-64
2021/10/16 08:38:18;;;;;;;12.20;6.23;;;9.30;99.90;;;;;;5094500;28;20185;-63
2021/10/16 08:40:49;;;;;;;8.27;5.20;;;9.60;99.90;;;;;;5094222;28;20220;-64
2021/10/16 08:43:18;;;;;;;7.60;5.00;;;9.80;99.90;;;;;;5092280;28;20196;-63
2021/10/16 08:45:46;;;;;;;13.17;5.07;;;10.20;99.90;;;;;;5090775;28;20192;-63
2021/10/16 08:48:15;;;;;;;11.50;5.07;;;10.40;99.90;;;;;;5094081;28;20623;-63
2021/10/16 08:50:49;;;;;;;9.03;5.63;;;10.70;99.90;;;;;;5082500;28;20682;-63
2021/10/16 08:53:17;;;;;;;7.60;4.87;;;10.80;99.90;;;;;;5074057;28;20276;-64
2021/10/16 08:55:51;;;;;;;10.37;4.80;;;10.90;99.90;;;;;;5072955;28;20204;-63
2021/10/16 08:58:19;;;;;;;8.93;4.95;;;11.00;99.90;;;;;;5087479;28;20180;-63
2021/10/16 09:00:51;;;;;;;11.57;4.40;;;11.10;99.90;;;;;;5090712;28;20238;-63
2021/10/16 09:03:26;;;;;;;7.43;4.03;;;11.20;99.90;;;;;;5073817;28;20184;-63
2021/10/16 09:06:11;;;;;;;8.97;4.83;;;11.30;99.90;;;;;;5073441;28;20676;-63
2021/10/16 09:08:45;;;;;;;7.50;4.28;;;11.10;99.90;;;;;;5073271;28;20662;-63
2021/10/16 09:11:26;;;;;;;13.07;5.20;;;11.40;99.90;;;;;;5073061;28;20229;-63
2021/10/16 09:14:00;;;;;;;8.83;4.97;;;11.30;99.90;;;;;;5073322;28;20717;-63
2021/10/16 09:16:33;;;;;;;7.60;5.17;;;11.40;99.90;;;;;;5090354;28;20192;-64
2021/10/16 09:19:13;;;;;;;10.57;5.82;;;11.40;99.90;;;;;;5093601;28;20287;-63
2021/10/16 09:21:48;;;;;;;10.73;5.57;;;11.20;99.90;;;;;;5093338;28;20679;-63
2021/10/16 09:24:19;;;;;;;8.87;4.47;;;11.40;99.90;;;;;;5092464;28;20279;-63
2021/10/16 09:26:50;;;;;;;8.57;4.10;;;11.40;99.90;;;;;;5093218;28;20700;-62
2021/10/16 09:29:19;;;;;;;10.17;5.10;;;11.40;99.90;;;;;;5093406;28;20568;-63
2021/10/16 09:31:50;;;;;;;9.63;5.00;;;11.40;99.90;;;;;;5092999;28;20299;-64
2021/10/16 09:34:26;;;;;;;8.13;5.43;;;11.20;99.90;;;;;;5093072;28;20188;-63
2021/10/16 09:37:03;;;;;;;10.10;5.63;;;11.10;99.90;;;;;;5092993;28;20694;-62
2021/10/16 09:39:32;;;;;;;7.73;5.33;;;11.10;99.90;;;;;;5093336;28;20215;-62
2021/10/16 09:42:00;;;;;;;6.67;4.70;;;11.10;99.90;;;;;;5093097;28;20211;-63
2021/10/16 09:44:30;;;;;;;10.17;4.60;;;10.90;99.90;;;;;;5092953;28;20263;-63
2021/10/16 09:47:11;;;;;;;9.90;4.53;;;10.90;99.90;;;;;;5092780;28;20196;-63
2021/10/16 09:49:41;;;;;;;9.23;5.10;;;10.80;99.90;;;;;;5093295;28;20271;-63
2021/10/16 09:52:12;;;;;;;8.67;5.17;;;10.80;99.90;;;;;;5093410;28;20363;-64
2021/10/16 09:54:41;;;;;;;10.67;4.97;;;10.80;99.90;;;;;;5092992;28;20195;-63
2021/10/16 09:57:11;;;;;;;8.27;5.30;;;10.80;99.90;;;;;;5093044;28;20204;-63
2021/10/16 09:59:41;;;;;;;6.13;4.40;;;10.90;99.90;;;;;;5092644;28;20200;-63
2021/10/16 10:02:10;;;;;;;9.63;5.23;;;11.00;99.90;;;;;;5093023;28;20314;-64
2021/10/16 10:04:40;;;;;;;11.70;4.53;;;11.10;99.90;;;;;;5092953;28;20258;-63
2021/10/16 10:07:08;;;;;;;7.40;4.10;;;11.10;99.90;;;;;;5092916;28;20235;-62
2021/10/16 10:09:40;;;;;;;8.20;5.10;;;11.20;99.90;;;;;;5092588;28;20231;-65
2021/10/16 10:12:09;;;;;;;9.23;4.50;;;11.30;99.90;;;;;;5092832;28;20194;-64
2021/10/16 10:14:39;;;;;;;9.27;4.75;;;11.40;99.90;;;;;;5092411;28;20309;-63
2021/10/16 10:17:09;;;;;;;7.53;4.05;;;11.60;99.90;;;;;;5092322;28;20646;-62
2021/10/16 10:19:39;;;;;;;9.90;4.10;;;11.80;99.90;;;;;;5093557;28;20231;-62
2021/10/16 10:22:12;;;;;;;7.88;4.03;;;11.90;99.90;;;;;;5093556;28;20208;-64
2021/10/16 10:24:43;;;;;;;7.40;3.97;;;12.20;99.90;;;;;;5093625;28;20191;-64
2021/10/16 10:27:12;;;;;;;9.15;4.40;;;12.30;99.90;;;;;;5092834;28;20184;-64
2021/10/16 10:29:42;;;;;;;7.28;4.13;;;12.40;99.90;;;;;;5091858;28;20686;-65
2021/10/16 10:32:17;;;;;;;9.38;4.03;;;12.50;99.90;;;;;;5091346;28;20196;-64
2021/10/16 10:34:57;;;;;;;8.27;4.22;;;12.50;99.90;;;;;;5093347;28;20187;-64
2021/10/16 10:37:38;;;;;;;6.55;3.50;;;12.40;99.90;;;;;;5096649;28;20223;-64
2021/10/16 10:40:20;;;;;;;8.05;4.13;;;12.30;99.90;;;;;;5096645;28;20223;-63
2021/10/16 10:42:53;;;;;;;4.57;2.83;;;12.20;99.90;;;;;;5097118;28;20214;-64
2021/10/16 10:45:23;;;;;;;4.57;3.20;;;12.20;99.90;;;;;;5096903;28;20640;-64
2021/10/16 10:47:59;;;;;;;8.45;4.30;;;12.10;99.90;;;;;;5097127;28;20227;-64
2021/10/16 10:50:58;;;;;;;6.70;3.13;;;12.20;99.90;;;;;;5096868;28;20321;-62
2021/10/16 10:53:37;;;;;;;5.60;2.67;;;12.10;99.90;;;;;;5096845;28;20287;-64
2021/10/16 10:56:24;;;;;;;6.63;2.70;;;12.30;99.90;;;;;;5096622;28;20581;-64
2021/10/16 10:59:01;;;;;;;8.67;3.20;;;12.30;99.90;;;;;;5096324;28;20184;-63
2021/10/16 11:02:06;;;;;;;7.57;2.63;;;12.40;99.90;;;;;;5096693;28;20214;-64
2021/10/16 11:04:44;;;;;;;6.68;2.55;;;12.50;99.90;;;;;;5096557;28;20226;-63
2021/10/16 11:07:15;;;;;;;5.72;2.38;;;12.60;99.90;;;;;;5096525;28;20184;-64
2021/10/16 11:09:44;;;;;;;6.95;2.30;;;12.80;99.90;;;;;;5095787;28;20694;-64
2021/10/16 11:12:14;;;;;;;5.53;2.13;;;13.10;99.90;;;;;;5096449;28;20173;-64
2021/10/16 11:14:44;;;;;;;4.93;2.10;;;13.30;99.90;;;;;;5095918;28;20632;-63
2021/10/16 11:17:14;;;;;;;8.63;2.00;;;13.30;99.90;;;;;;5096195;28;20295;-64
2021/10/16 11:19:54;;;;;;;4.57;1.98;;;13.60;99.90;;;;;;5096217;28;20231;-64
2021/10/16 11:22:24;;;;;;;4.78;1.90;;;13.80;99.90;;;;;;5096068;28;20298;-63
2021/10/16 11:25:01;;;;;;;7.05;2.25;;;13.70;99.90;;;;;;5095564;28;20295;-64
2021/10/16 11:27:30;;;;;;;6.10;2.28;;;13.50;99.90;;;;;;5095557;28;20778;-65
2021/10/16 11:29:58;;;;;;;5.88;2.72;;;13.50;99.90;;;;;;5095650;28;20200;-65
2021/10/16 11:32:26;;;;;;;6.05;2.47;;;13.40;99.90;;;;;;5095429;28;20292;-64
2021/10/16 11:34:56;;;;;;;8.15;2.38;;;13.40;99.90;;;;;;5095611;28;20206;-64
2021/10/16 11:37:39;;;;;;;3.90;2.35;;;13.50;99.90;;;;;;5095783;28;20196;-65
2021/10/16 11:40:10;;;;;;;7.32;2.03;;;13.30;99.90;;;;;;5095176;28;20271;-64
2021/10/16 11:42:42;;;;;;;4.95;2.00;;;13.50;99.90;;;;;;5095232;28;20295;-64
2021/10/16 11:45:12;;;;;;;5.05;2.13;;;13.50;99.90;;;;;;5095564;28;20591;-62
2021/10/16 11:47:42;;;;;;;4.80;2.30;;;13.50;99.90;;;;;;5094733;28;20295;-64
2021/10/16 11:50:17;;;;;;;6.85;2.50;;;13.40;99.90;;;;;;5095355;28;20303;-64
2021/10/16 11:52:47;;;;;;;6.97;2.78;;;13.20;99.90;;;;;;5095800;28;20225;-65
2021/10/16 11:55:17;;;;;;;6.60;2.60;;;13.00;99.90;;;;;;5095159;28;20200;-63
2021/10/16 11:57:47;;;;;;;6.43;2.50;;;12.80;99.90;;;;;;5095222;28;20234;-64
2021/10/16 12:00:28;;;;;;;5.57;2.80;;;12.60;99.90;;;;;;5095763;28;20235;-64
2021/10/16 12:02:58;;;;;;;5.83;2.60;;;12.50;99.90;;;;;;5095366;28;20287;-64
2021/10/16 12:05:27;;;;;;;4.30;2.28;;;12.40;99.90;;;;;;5095362;28;20204;-65
2021/10/16 12:07:56;;;;;;;5.60;2.70;;;12.60;99.90;;;;;;5095190;28;20204;-64
2021/10/16 12:10:29;;;;;;;4.55;2.30;;;12.80;99.90;;;;;;5094544;28;20699;-64
2021/10/16 12:13:13;;;;;;;6.38;1.70;;;13.10;99.90;;;;;;5095182;28;20199;-63
2021/10/16 12:15:45;;;;;;;5.65;1.50;;;13.30;99.90;;;;;;5095248;28;20253;-63
2021/10/16 12:18:22;;;;;;;3.53;2.03;;;13.40;99.90;;;;;;5095154;28;20220;-63
2021/10/16 12:20:52;;;;;;;6.15;1.70;;;13.40;99.90;;;;;;5094968;28;20227;-64
2021/10/16 12:23:21;;;;;;;5.00;1.90;;;13.40;99.90;;;;;;5094624;28;20325;-64
2021/10/16 12:25:52;;;;;;;4.03;2.08;;;13.40;99.90;;;;;;5094387;28;20235;-63
2021/10/16 12:28:23;;;;;;;7.78;2.50;;;13.60;99.90;;;;;;5094742;28;20599;-63
2021/10/16 12:31:08;;;;;;;5.82;2.15;;;13.70;99.90;;;;;;5094816;28;20187;-63
2021/10/16 12:34:01;;;;;;;6.05;2.25;;;13.60;99.90;;;;;;5094619;28;20287;-64
2021/10/16 12:36:32;;;;;;;6.82;2.15;;;13.50;99.90;;;;;;5085471;28;20243;-64
2021/10/16 12:39:01;;;;;;;4.57;2.03;;;13.40;99.90;;;;;;5094344;28;20185;-64
2021/10/16 12:41:36;;;;;;;6.40;2.13;;;13.30;99.90;;;;;;5094311;28;20674;-64
2021/10/16 12:44:26;;;;;;;5.35;2.00;;;13.20;99.90;;;;;;5094127;28;20219;-62
2021/10/16 12:47:06;;;;;;;4.60;1.90;;;13.00;99.90;;;;;;5094442;28;20280;-63
2021/10/16 12:49:38;;;;;;;3.05;1.77;;;12.70;99.90;;;;;;5094221;28;20626;-63
2021/10/16 12:52:25;;;;;;;5.75;2.47;;;12.60;99.90;;;;;;5094344;28;20187;-63
2021/10/16 12:54:55;;;;;;;5.65;2.45;;;12.40;99.90;;;;;;5094045;28;20212;-64
2021/10/16 12:57:22;;;;;;;6.07;2.85;;;12.40;99.90;;;;;;5093766;28;20754;-63
2021/10/16 12:59:52;;;;;;;5.63;2.97;;;12.50;99.90;;;;;;5094110;28;20206;-63